createdAt,value
2023-05-05T16:02:12.802Z,1488.00
2023-05-05T16:03:12.690Z,1452.00
2023-05-05T16:04:12.588Z,1424.00
2023-05-05T16:05:12.586Z,1388.00
2023-05-05T16:06:12.614Z,1348.00
2023-05-05T16:07:12.572Z,1320.00
2023-05-05T16:08:12.544Z,1276.00
2023-05-05T16:09:12.542Z,1232.00
2023-05-05T16:10:12.519Z,1188.00
2023-05-05T16:11:12.768Z,1152.00
2023-05-05T16:12:12.494Z,1108.00
2023-05-05T16:13:12.547Z,1064.00
2023-05-05T16:14:12.479Z,1008.00
2023-05-05T16:15:12.461Z,960.00
2023-05-05T16:16:12.506Z,920.00
2023-05-05T16:17:12.444Z,876.00
2023-05-05T16:18:12.491Z,840.00
2023-05-05T16:19:12.418Z,820.00
2023-05-05T16:20:12.398Z,804.00
2023-05-05T16:21:12.409Z,780.00
2023-05-05T16:22:12.414Z,756.00
2023-05-05T16:23:12.376Z,724.00
2023-05-05T16:24:12.363Z,712.00
2023-05-05T16:25:12.347Z,696.00
2023-05-05T16:26:12.334Z,676.00
2023-05-05T16:27:12.348Z,632.00
2023-05-05T16:28:12.322Z,592.00
2023-05-05T16:29:12.328Z,560.00
2023-05-05T16:30:12.294Z,524.00
2023-05-05T16:31:12.450Z,496.00
2023-05-05T16:32:12.275Z,484.00
2023-05-05T16:33:12.292Z,472.00
2023-05-05T16:34:12.334Z,452.00
2023-05-05T16:35:12.259Z,440.00
2023-05-05T16:36:12.244Z,424.00
2023-05-05T16:37:12.220Z,416.00
2023-05-05T16:38:12.199Z,408.00
2023-05-05T16:39:12.195Z,404.00
2023-05-05T16:40:12.206Z,396.00
2023-05-05T16:41:12.192Z,392.00
2023-05-05T16:42:12.153Z,384.00
2023-05-05T16:43:12.149Z,376.00
2023-05-05T16:44:12.136Z,368.00
2023-05-05T16:45:12.237Z,356.00
2023-05-05T16:46:12.124Z,348.00
2023-05-05T16:47:12.098Z,340.00
2023-05-05T16:48:12.183Z,336.00
2023-05-05T16:49:12.104Z,328.00
2023-05-05T16:50:12.301Z,324.00
2023-05-05T16:51:12.049Z,316.00
2023-05-05T16:52:12.034Z,316.00
2023-05-05T16:53:12.043Z,312.00
2023-05-05T16:54:12.026Z,304.00
2023-05-05T16:55:12.043Z,304.00
2023-05-05T16:56:12.016Z,296.00
2023-05-05T16:57:12.014Z,292.00
2023-05-05T16:58:11.968Z,292.00
2023-05-05T16:59:11.972Z,288.00
2023-05-05T17:00:11.968Z,288.00
2023-05-05T17:01:12.012Z,284.00
2023-05-05T17:02:11.940Z,280.00
2023-05-05T17:03:11.920Z,272.00
2023-05-05T17:04:11.919Z,272.00
2023-05-05T17:05:12.188Z,268.00
2023-05-05T17:06:11.970Z,264.00
2023-05-05T17:07:11.892Z,260.00
2023-05-05T17:08:11.858Z,260.00
2023-05-05T17:09:11.853Z,260.00
2023-05-05T17:10:11.870Z,264.00
2023-05-05T17:11:12.008Z,268.00
2023-05-05T17:12:11.816Z,268.00
2023-05-05T17:13:11.916Z,276.00
2023-05-05T17:14:11.826Z,276.00
2023-05-05T17:15:11.852Z,284.00
2023-05-05T17:16:11.804Z,284.00
2023-05-05T17:17:11.859Z,284.00
2023-05-05T17:18:11.767Z,284.00
2023-05-05T17:19:11.750Z,284.00
2023-05-05T17:20:11.736Z,288.00
2023-05-05T17:21:11.719Z,284.00
2023-05-05T17:22:11.808Z,276.00
2023-05-05T17:23:11.716Z,276.00
2023-05-05T17:24:11.716Z,268.00
2023-05-05T17:25:11.890Z,264.00
2023-05-05T17:26:11.644Z,256.00
2023-05-05T17:27:11.678Z,252.00
2023-05-05T17:28:11.645Z,248.00
2023-05-05T17:29:13.073Z,240.00
2023-05-05T17:30:11.611Z,236.00
2023-05-05T17:31:11.618Z,228.00
2023-05-05T17:32:11.606Z,220.00
2023-05-05T17:33:11.603Z,216.00
2023-05-05T17:34:11.583Z,212.00
2023-05-05T17:35:11.694Z,208.00
2023-05-05T17:36:11.542Z,204.00
2023-05-05T17:37:11.526Z,200.00
2023-05-05T17:38:11.599Z,196.00
2023-05-05T17:39:11.520Z,188.00
2023-05-05T17:40:11.506Z,184.00
2023-05-05T17:41:11.508Z,180.00
2023-05-05T17:42:11.507Z,176.00
2023-05-05T17:43:11.460Z,168.00
2023-05-05T17:44:11.445Z,164.00
2023-05-05T17:45:11.816Z,160.00
2023-05-05T17:46:11.509Z,152.00
2023-05-05T17:47:11.426Z,148.00
2023-05-05T17:48:11.429Z,140.00
2023-05-05T17:49:11.388Z,136.00
2023-05-05T17:50:11.399Z,128.00
2023-05-05T17:51:11.395Z,124.00
2023-05-05T17:52:11.349Z,120.00
2023-05-05T17:53:11.356Z,116.00
2023-05-05T17:54:11.423Z,112.00
2023-05-05T17:55:11.628Z,104.00
2023-05-05T17:56:11.326Z,100.00
2023-05-05T17:57:11.305Z,96.00
2023-05-05T17:58:11.303Z,92.00
2023-05-05T17:59:11.284Z,88.00
2023-05-05T18:00:11.273Z,80.00
2023-05-05T18:01:11.293Z,72.00
2023-05-05T18:02:11.259Z,72.00
2023-05-05T18:03:11.393Z,68.00
2023-05-05T18:04:11.221Z,60.00
2023-05-05T18:05:11.506Z,56.00
2023-05-05T18:06:11.206Z,52.00
2023-05-05T18:07:11.191Z,48.00
2023-05-05T18:08:11.189Z,44.00
2023-05-05T18:09:11.420Z,40.00
2023-05-05T18:10:11.318Z,36.00
2023-05-05T18:11:11.141Z,36.00
2023-05-05T18:12:11.145Z,32.00
2023-05-05T18:13:11.262Z,32.00
2023-05-05T18:14:11.155Z,28.00
2023-05-05T18:15:11.467Z,24.00
2023-05-05T18:16:11.159Z,24.00
2023-05-05T18:17:11.103Z,20.00
2023-05-05T18:18:11.112Z,20.00
2023-05-05T18:19:11.071Z,20.00
2023-05-05T18:20:11.066Z,20.00
2023-05-05T18:21:11.033Z,16.00
2023-05-05T18:22:11.035Z,16.00
2023-05-05T18:23:11.018Z,16.00
2023-05-05T18:24:19.207Z,16.00
2023-05-05T18:25:12.249Z,12.00
2023-05-05T18:26:11.144Z,8.00
2023-05-05T18:27:10.974Z,8.00
2023-05-05T18:28:10.961Z,12.00
2023-05-05T18:29:10.946Z,8.00
2023-05-05T18:30:10.955Z,8.00
2023-05-05T18:31:10.949Z,8.00
2023-05-05T18:32:10.926Z,4.00
2023-05-05T18:33:10.979Z,8.00
2023-05-05T18:34:10.893Z,8.00
2023-05-05T18:35:11.187Z,4.00
2023-05-05T18:36:10.884Z,4.00
2023-05-05T18:37:10.863Z,4.00
2023-05-05T18:38:10.853Z,4.00
2023-05-05T18:39:10.843Z,4.00
2023-05-05T18:40:10.815Z,4.00
2023-05-05T18:41:10.841Z,0.00
2023-05-05T18:42:11.112Z,0.00
2023-05-05T18:43:10.783Z,4.00
2023-05-05T18:44:10.778Z,4.00
2023-05-05T18:45:10.974Z,4.00
2023-05-05T18:46:10.760Z,0.00
2023-05-05T18:47:10.821Z,0.00
2023-05-05T18:48:10.736Z,0.00
2023-05-05T18:49:10.718Z,0.00
2023-05-05T18:50:10.705Z,0.00
2023-05-05T18:51:10.687Z,0.00
2023-05-05T18:52:10.695Z,0.00
2023-05-05T18:53:10.688Z,0.00
2023-05-05T18:54:10.652Z,0.00
2023-05-05T18:55:10.811Z,0.00
2023-05-05T18:56:10.629Z,0.00
2023-05-05T18:57:10.634Z,0.00
2023-05-05T18:58:10.772Z,0.00
2023-05-05T18:59:10.599Z,0.00
2023-05-05T19:00:10.623Z,0.00
2023-05-05T19:01:10.610Z,0.00
2023-05-05T19:02:10.585Z,0.00
2023-05-05T19:03:10.560Z,0.00
2023-05-05T19:04:22.623Z,0.00
2023-05-05T19:05:11.700Z,0.00
2023-05-05T19:06:10.513Z,0.00
2023-05-05T19:07:12.908Z,0.00
2023-05-05T19:08:11.519Z,0.00
2023-05-05T19:09:10.487Z,0.00
2023-05-05T19:10:10.515Z,0.00
2023-05-05T19:11:10.463Z,0.00
2023-05-05T19:12:10.469Z,0.00
2023-05-05T19:13:10.497Z,0.00
2023-05-05T19:14:10.511Z,0.00
2023-05-05T19:15:10.606Z,0.00
2023-05-05T19:16:10.482Z,0.00
2023-05-05T19:17:10.406Z,0.00
2023-05-05T19:18:10.392Z,0.00
2023-05-05T19:19:10.368Z,0.00
2023-05-05T19:20:10.356Z,0.00
2023-05-05T19:21:10.368Z,0.00
2023-05-05T19:22:10.341Z,0.00
2023-05-05T19:23:10.325Z,0.00
2023-05-05T19:24:10.320Z,0.00
2023-05-05T19:25:10.543Z,0.00
2023-05-05T19:26:10.279Z,0.00
2023-05-05T19:27:10.261Z,0.00
2023-05-05T19:28:11.128Z,0.00
2023-05-05T19:29:10.257Z,0.00
2023-05-05T19:30:10.324Z,0.00
2023-05-05T19:31:10.240Z,0.00
2023-05-05T19:32:10.261Z,0.00
2023-05-05T19:33:10.369Z,0.00
2023-05-05T19:34:10.200Z,0.00
2023-05-05T19:35:10.698Z,0.00
2023-05-05T19:36:10.163Z,0.00
2023-05-05T19:37:10.161Z,0.00
2023-05-05T19:38:10.180Z,0.00
2023-05-05T19:39:10.147Z,0.00
2023-05-05T19:40:10.418Z,0.00
2023-05-05T19:41:10.104Z,0.00
2023-05-05T19:42:10.119Z,0.00
2023-05-05T19:43:10.095Z,0.00
2023-05-05T19:44:10.074Z,0.00
2023-05-05T19:45:10.060Z,0.00
2023-05-05T19:46:10.402Z,0.00
2023-05-05T19:47:11.030Z,0.00
2023-05-05T19:48:10.032Z,0.00
2023-05-05T19:49:10.042Z,0.00
2023-05-05T19:50:10.201Z,0.00
2023-05-05T19:51:10.018Z,0.00
2023-05-05T19:52:09.983Z,0.00
2023-05-05T19:53:09.986Z,0.00
2023-05-05T19:54:09.957Z,0.00
2023-05-05T19:55:10.042Z,0.00
2023-05-05T19:56:09.944Z,0.00
2023-05-05T19:57:09.928Z,0.00
2023-05-05T19:58:09.917Z,0.00
2023-05-05T19:59:09.914Z,0.00
2023-05-05T20:00:10.135Z,0.00
2023-05-05T20:01:09.912Z,0.00
2023-05-05T20:02:09.996Z,0.00
2023-05-05T20:03:09.919Z,0.00
2023-05-05T20:04:09.973Z,0.00
2023-05-05T20:05:09.871Z,0.00
2023-05-05T20:06:09.832Z,0.00
2023-05-05T20:07:09.818Z,0.00
2023-05-05T20:08:09.815Z,0.00
2023-05-05T20:09:09.831Z,0.00
2023-05-05T20:10:10.101Z,0.00
2023-05-05T20:11:09.789Z,0.00
2023-05-05T20:12:09.764Z,0.00
2023-05-05T20:13:09.817Z,0.00
2023-05-05T20:14:09.809Z,0.00
2023-05-05T20:15:09.840Z,0.00
2023-05-05T20:16:09.765Z,0.00
2023-05-05T20:17:09.706Z,0.00
2023-05-05T20:18:09.801Z,0.00
2023-05-05T20:19:09.749Z,0.00
2023-05-05T20:20:09.669Z,0.00
2023-05-05T20:21:09.684Z,0.00
2023-05-05T20:22:09.664Z,0.00
2023-05-05T20:23:09.637Z,0.00
2023-05-05T20:24:09.626Z,0.00
2023-05-05T20:25:09.640Z,0.00
2023-05-05T20:26:09.629Z,0.00
2023-05-05T20:27:09.597Z,0.00
2023-05-05T20:28:09.586Z,0.00
2023-05-05T20:29:09.599Z,0.00
2023-05-05T20:30:09.894Z,0.00
2023-05-05T20:31:09.590Z,0.00
2023-05-05T20:32:09.559Z,0.00
2023-05-05T20:33:09.619Z,0.00
2023-05-05T20:34:09.612Z,0.00
2023-05-05T20:35:09.511Z,0.00
2023-05-05T20:36:09.532Z,0.00
2023-05-05T20:37:10.604Z,0.00
2023-05-05T20:38:09.482Z,0.00
2023-05-05T20:39:09.468Z,0.00
2023-05-05T20:40:09.650Z,0.00
2023-05-05T20:41:09.465Z,0.00
2023-05-05T20:42:09.427Z,0.00
2023-05-05T20:43:09.412Z,0.00
2023-05-05T20:44:09.423Z,0.00
2023-05-05T20:45:09.406Z,0.00
2023-05-05T20:46:10.864Z,0.00
2023-05-05T20:47:09.463Z,0.00
2023-05-05T20:48:09.401Z,0.00
2023-05-05T20:49:09.350Z,0.00
2023-05-05T20:50:16.480Z,0.00
2023-05-05T20:51:09.323Z,0.00
2023-05-05T20:52:09.339Z,0.00
2023-05-05T20:53:09.306Z,0.00
2023-05-05T20:54:09.291Z,0.00
2023-05-05T20:55:09.282Z,0.00
2023-05-05T20:56:09.409Z,0.00
2023-05-05T20:57:09.305Z,0.00
2023-05-05T20:58:09.267Z,0.00
2023-05-05T20:59:09.234Z,0.00
2023-05-05T21:00:09.463Z,0.00
2023-05-05T21:01:09.280Z,0.00
2023-05-05T21:02:09.350Z,0.00
2023-05-05T21:03:09.252Z,0.00
2023-05-05T21:04:09.172Z,0.00
2023-05-05T21:05:09.168Z,0.00
2023-05-05T21:06:09.290Z,0.00
2023-05-05T21:07:09.172Z,0.00
2023-05-05T21:08:09.127Z,0.00
2023-05-05T21:09:09.143Z,0.00
2023-05-05T21:10:09.521Z,0.00
2023-05-05T21:11:09.108Z,0.00
2023-05-05T21:12:09.129Z,0.00
2023-05-05T21:13:09.136Z,0.00
2023-05-05T21:14:09.070Z,0.00
2023-05-05T21:15:09.294Z,0.00
2023-05-05T21:16:09.074Z,0.00
2023-05-05T21:17:09.051Z,0.00
2023-05-05T21:18:09.078Z,0.00
2023-05-05T21:19:09.001Z,0.00
2023-05-05T21:20:09.242Z,0.00
2023-05-05T21:21:08.996Z,0.00
2023-05-05T21:22:09.063Z,0.00
2023-05-05T21:23:08.965Z,0.00
2023-05-05T21:24:08.948Z,0.00
2023-05-05T21:25:08.938Z,0.00
2023-05-05T21:26:08.968Z,0.00
2023-05-05T21:27:08.920Z,0.00
2023-05-05T21:28:08.903Z,0.00
2023-05-05T21:29:08.902Z,0.00
2023-05-05T21:30:11.065Z,0.00
2023-05-05T21:32:08.929Z,0.00
2023-05-05T21:33:08.957Z,0.00
2023-05-05T21:34:08.831Z,0.00
2023-05-05T21:35:08.840Z,0.00
2023-05-05T21:36:08.843Z,0.00
2023-05-05T21:37:08.813Z,0.00
2023-05-05T21:38:08.906Z,0.00
2023-05-05T21:39:08.780Z,0.00
2023-05-05T21:40:08.973Z,0.00
2023-05-05T21:41:08.771Z,0.00
2023-05-05T21:42:08.749Z,0.00
2023-05-05T21:43:08.751Z,0.00
2023-05-05T21:44:08.725Z,0.00
2023-05-05T21:45:08.728Z,0.00
2023-05-05T21:46:08.775Z,0.00
2023-05-05T21:47:08.697Z,0.00
2023-05-05T21:48:08.744Z,0.00
2023-05-05T21:49:08.661Z,0.00
2023-05-05T21:50:08.858Z,0.00
2023-05-05T21:51:08.661Z,0.00
2023-05-05T21:52:08.639Z,0.00
2023-05-05T21:53:08.629Z,0.00
2023-05-05T21:54:08.762Z,0.00
2023-05-05T21:55:08.613Z,0.00
2023-05-05T21:56:08.585Z,0.00
2023-05-05T21:57:08.586Z,0.00
2023-05-05T21:58:08.581Z,0.00
2023-05-05T21:59:08.555Z,0.00
2023-05-05T22:00:08.837Z,0.00
2023-05-05T22:01:08.605Z,0.00
2023-05-05T22:02:08.529Z,0.00
2023-05-05T22:03:08.644Z,0.00
2023-05-05T22:04:08.513Z,0.00
2023-05-05T22:05:08.513Z,0.00
2023-05-05T22:06:08.490Z,0.00
2023-05-05T22:07:08.470Z,0.00
2023-05-05T22:08:08.466Z,0.00
2023-05-05T22:09:08.447Z,0.00
2023-05-05T22:10:08.849Z,0.00
2023-05-05T22:11:08.439Z,0.00
2023-05-05T22:12:08.413Z,0.00
2023-05-05T22:13:08.449Z,0.00
2023-05-05T22:14:08.399Z,0.00
2023-05-05T22:15:08.526Z,0.00
2023-05-05T22:16:08.417Z,0.00
2023-05-05T22:17:08.371Z,0.00
2023-05-05T22:18:08.400Z,0.00
2023-05-05T22:19:08.330Z,0.00
2023-05-05T22:20:08.555Z,0.00
2023-05-05T22:21:08.310Z,0.00
2023-05-05T22:22:08.302Z,0.00
2023-05-05T22:23:08.318Z,0.00
2023-05-05T22:24:08.280Z,0.00
2023-05-05T22:25:08.526Z,0.00
2023-05-05T22:26:08.348Z,0.00
2023-05-05T22:27:08.255Z,0.00
2023-05-05T22:28:08.227Z,0.00
2023-05-05T22:29:08.215Z,0.00
2023-05-05T22:30:08.233Z,0.00
2023-05-05T22:31:08.260Z,0.00
2023-05-05T22:32:08.200Z,0.00
2023-05-05T22:33:08.269Z,0.00
2023-05-05T22:34:08.162Z,0.00
2023-05-05T22:35:08.521Z,0.00
2023-05-05T22:36:08.142Z,0.00
2023-05-05T22:37:08.145Z,0.00
2023-05-05T22:38:08.115Z,0.00
2023-05-05T22:39:08.104Z,0.00
2023-05-05T22:40:08.106Z,0.00
2023-05-05T22:41:08.084Z,0.00
2023-05-05T22:42:08.399Z,0.00
2023-05-05T22:43:08.080Z,0.00
2023-05-05T22:44:08.048Z,0.00
2023-05-05T22:45:08.324Z,0.00
2023-05-05T22:46:08.052Z,0.00
2023-05-05T22:47:08.049Z,0.00
2023-05-05T22:48:08.050Z,0.00
2023-05-05T22:49:08.017Z,0.00
2023-05-05T22:50:07.999Z,0.00
2023-05-05T22:51:07.970Z,0.00
2023-05-05T22:52:07.979Z,0.00
2023-05-05T22:53:07.946Z,0.00
2023-05-05T22:54:07.936Z,0.00
2023-05-05T22:55:08.376Z,0.00
2023-05-05T22:56:07.921Z,0.00
2023-05-05T22:57:07.945Z,0.00
2023-05-05T22:58:07.990Z,0.00
2023-05-05T22:59:07.877Z,0.00
2023-05-05T23:00:07.872Z,0.00
2023-05-05T23:01:07.960Z,0.00
2023-05-05T23:02:07.860Z,0.00
2023-05-05T23:03:07.822Z,0.00
2023-05-05T23:04:07.834Z,0.00
2023-05-05T23:05:08.213Z,0.00
2023-05-05T23:06:07.809Z,0.00
2023-05-05T23:07:07.834Z,0.00
2023-05-05T23:08:07.784Z,0.00
2023-05-05T23:09:07.761Z,0.00
2023-05-05T23:10:07.764Z,0.00
2023-05-05T23:11:07.737Z,0.00
2023-05-05T23:12:07.745Z,0.00
2023-05-05T23:13:07.797Z,0.00
2023-05-05T23:14:07.844Z,0.00
2023-05-05T23:15:08.095Z,0.00
2023-05-05T23:16:07.788Z,0.00
2023-05-05T23:17:07.682Z,0.00
2023-05-05T23:18:07.760Z,0.00
2023-05-05T23:19:07.658Z,0.00
2023-05-05T23:20:07.645Z,0.00
2023-05-05T23:21:07.632Z,0.00
2023-05-05T23:22:07.608Z,0.00
2023-05-05T23:23:07.604Z,0.00
2023-05-05T23:24:07.594Z,0.00
2023-05-05T23:25:08.121Z,0.00
2023-05-05T23:26:07.586Z,0.00
2023-05-05T23:27:07.555Z,0.00
2023-05-05T23:28:07.535Z,0.00
2023-05-05T23:29:07.531Z,0.00
2023-05-05T23:30:07.563Z,0.00
2023-05-05T23:31:07.543Z,0.00
2023-05-05T23:32:07.491Z,0.00
2023-05-05T23:33:07.564Z,0.00
2023-05-05T23:34:07.479Z,0.00
2023-05-05T23:35:07.825Z,0.00
2023-05-05T23:36:07.444Z,0.00
2023-05-05T23:37:07.454Z,0.00
2023-05-05T23:38:07.424Z,0.00
2023-05-05T23:39:07.424Z,0.00
2023-05-05T23:40:07.420Z,0.00
2023-05-05T23:41:07.391Z,0.00
2023-05-05T23:42:07.378Z,0.00
2023-05-05T23:43:07.379Z,0.00
2023-05-05T23:44:07.399Z,0.00
2023-05-05T23:45:07.458Z,0.00
2023-05-05T23:46:07.455Z,0.00
2023-05-05T23:47:07.367Z,0.00
2023-05-05T23:48:07.351Z,0.00
2023-05-05T23:49:07.324Z,0.00
2023-05-05T23:50:07.284Z,0.00
2023-05-05T23:51:07.278Z,0.00
2023-05-05T23:52:07.283Z,0.00
2023-05-05T23:53:07.250Z,0.00
2023-05-05T23:54:07.300Z,0.00
2023-05-05T23:55:07.516Z,0.00
2023-05-05T23:56:07.233Z,0.00
2023-05-05T23:57:07.223Z,0.00
2023-05-05T23:58:07.188Z,0.00
2023-05-05T23:59:07.178Z,0.00
